createdAt,value
2023-08-12T00:00:13.369Z,99900.38
2023-08-12T00:02:20.599Z,99902.38
2023-08-12T00:04:23.548Z,99903.44
2023-08-12T00:06:26.561Z,99903.88
2023-08-12T00:08:30.624Z,99903.09
2023-08-12T00:10:33.991Z,99904.72
2023-08-12T00:12:37.369Z,99903.69
2023-08-12T00:14:41.721Z,99909.88
2023-08-12T00:16:44.749Z,99914.69
2023-08-12T00:18:47.752Z,99904.25
2023-08-12T00:20:50.675Z,99913.25
2023-08-12T00:22:53.665Z,99918.28
2023-08-12T00:24:56.528Z,99907.94
2023-08-12T00:26:59.611Z,99918.06
2023-08-12T00:29:02.658Z,99919.31
2023-08-12T00:31:07.167Z,99918.13
2023-08-12T00:33:10.578Z,99911.09
2023-08-12T00:35:13.649Z,99910.88
2023-08-12T00:37:17.665Z,99912.97
2023-08-12T00:39:20.854Z,99900.50
2023-08-12T00:41:23.976Z,99906.97
2023-08-12T00:43:27.006Z,99900.38
2023-08-12T00:45:29.967Z,99890.84
2023-08-12T00:47:34.472Z,99905.78
2023-08-12T00:49:38.970Z,99907.88
2023-08-12T00:51:43.188Z,99909.03
2023-08-12T00:53:48.491Z,99899.25
2023-08-12T00:55:51.810Z,99900.56
2023-08-12T00:57:54.916Z,99898.31
2023-08-12T00:59:58.550Z,99896.06
2023-08-12T01:02:01.610Z,99900.03
2023-08-12T01:04:06.414Z,99893.69
2023-08-12T01:06:09.718Z,99890.16
2023-08-12T01:08:12.648Z,99892.63
2023-08-12T01:10:17.878Z,99892.63
2023-08-12T01:12:33.543Z,99895.91
2023-08-12T01:14:44.289Z,99894.03
2023-08-12T01:16:49.498Z,99889.13
2023-08-12T01:18:54.125Z,99890.97
2023-08-12T01:21:00.199Z,99890.38
2023-08-12T01:23:12.914Z,99893.97
2023-08-12T01:25:15.959Z,99899.97
2023-08-12T01:27:19.034Z,99894.56
2023-08-12T01:29:23.241Z,99901.72
2023-08-12T01:31:35.920Z,99910.69
2023-08-12T01:33:43.960Z,99910.69
2023-08-12T01:35:53.001Z,99908.22
2023-08-12T01:37:59.024Z,99913.84
2023-08-12T01:40:07.518Z,99911.16
2023-08-12T01:42:11.268Z,99909.72
2023-08-12T01:44:14.578Z,99911.59
2023-08-12T01:46:17.730Z,99907.25
2023-08-12T01:48:24.450Z,99909.56
2023-08-12T01:50:27.575Z,99909.41
2023-08-12T01:52:30.482Z,99906.13
2023-08-12T01:54:35.915Z,99906.59
2023-08-12T01:56:40.030Z,99913.59
2023-08-12T01:58:43.008Z,99913.19
2023-08-12T02:00:46.034Z,99910.06
2023-08-12T02:02:49.044Z,99903.88
2023-08-12T02:04:52.010Z,99905.56
2023-08-12T02:06:55.268Z,99905.56
2023-08-12T02:08:58.465Z,99905.06
2023-08-12T02:11:01.498Z,99897.78
2023-08-12T02:13:06.474Z,99907.84
2023-08-12T02:15:09.984Z,99899.75
2023-08-12T02:17:13.243Z,99901.00
2023-08-12T02:19:16.373Z,99894.88
2023-08-12T02:21:19.349Z,99892.69
2023-08-12T02:23:22.480Z,99892.94
2023-08-12T02:25:25.506Z,99888.78
2023-08-12T02:27:28.408Z,99888.78
2023-08-12T02:29:32.892Z,99887.09
2023-08-12T02:31:35.866Z,99885.22
2023-08-12T02:33:38.871Z,99881.72
2023-08-12T02:35:41.840Z,99875.19
2023-08-12T02:37:46.504Z,99883.03
2023-08-12T02:39:49.392Z,99883.06
2023-08-12T02:41:52.391Z,99889.91
2023-08-12T02:43:55.329Z,99888.44
2023-08-12T02:45:59.893Z,99894.28
2023-08-12T02:48:02.908Z,99890.75
2023-08-12T02:50:07.689Z,99895.28
2023-08-12T02:52:11.212Z,99905.94
2023-08-12T02:54:14.565Z,99903.38
2023-08-12T02:56:17.832Z,99895.72
2023-08-12T02:58:20.810Z,99898.59
2023-08-12T03:00:23.969Z,99890.81
2023-08-12T03:02:28.562Z,99896.88
2023-08-12T03:04:31.588Z,99900.41
2023-08-12T03:06:34.801Z,99901.78
2023-08-12T03:08:37.922Z,99906.31
2023-08-12T03:10:42.760Z,99904.00
2023-08-12T03:12:47.762Z,99902.13
2023-08-12T03:14:51.439Z,99905.81
2023-08-12T03:16:54.459Z,99894.56
2023-08-12T03:18:59.180Z,99898.28
2023-08-12T03:21:06.690Z,99900.56
2023-08-12T03:23:09.752Z,99903.88
2023-08-12T03:25:12.844Z,99906.38
2023-08-12T03:27:15.880Z,99902.63
2023-08-12T03:29:21.079Z,99897.22
2023-08-12T03:31:25.581Z,99892.28
2023-08-12T03:33:29.844Z,99899.34
2023-08-12T03:35:34.377Z,99895.28
2023-08-12T03:37:37.420Z,99893.66
2023-08-12T03:39:41.087Z,99896.84
2023-08-12T03:41:44.378Z,99900.16
2023-08-12T03:43:47.954Z,99890.25
2023-08-12T03:45:52.113Z,99898.16
2023-08-12T03:47:56.690Z,99900.97
2023-08-12T03:49:59.833Z,99900.69
2023-08-12T03:52:04.662Z,99901.72
2023-08-12T03:54:07.721Z,99908.50
2023-08-12T03:56:11.299Z,99908.31
2023-08-12T03:58:15.003Z,99905.78
2023-08-12T04:00:18.617Z,99899.34
2023-08-12T04:02:21.535Z,99905.16
2023-08-12T04:04:24.663Z,99906.97
2023-08-12T04:06:27.618Z,99907.22
2023-08-12T04:08:33.758Z,99900.19
2023-08-12T04:10:36.735Z,99900.91
2023-08-12T04:12:41.613Z,99894.50
2023-08-12T04:14:45.242Z,99896.13
2023-08-12T04:16:48.342Z,99892.56
2023-08-12T04:18:53.437Z,99894.16
2023-08-12T04:20:56.802Z,99895.38
2023-08-12T04:23:00.078Z,99887.69
2023-08-12T04:25:05.154Z,99884.56
2023-08-12T04:27:09.541Z,99887.78
2023-08-12T04:29:12.719Z,99888.34
2023-08-12T04:31:17.969Z,99888.31
2023-08-12T04:33:23.963Z,99892.19
2023-08-12T04:35:27.160Z,99891.28
2023-08-12T04:37:30.432Z,99897.88
2023-08-12T04:39:34.109Z,99894.88
2023-08-12T04:41:39.790Z,99892.94
2023-08-12T04:43:43.729Z,99898.69
2023-08-12T04:45:48.967Z,99892.88
2023-08-12T04:47:55.642Z,99893.38
2023-08-12T04:49:58.980Z,99896.47
2023-08-12T04:52:03.041Z,99892.66
2023-08-12T04:54:06.557Z,99889.50
2023-08-12T04:56:09.582Z,99895.66
2023-08-12T04:58:14.262Z,99896.00
2023-08-12T05:00:19.054Z,99898.59
2023-08-12T05:02:22.791Z,99895.59
2023-08-12T05:04:26.212Z,99890.50
2023-08-12T05:06:30.089Z,99899.72
2023-08-12T05:08:34.002Z,99894.19
2023-08-12T05:10:37.722Z,99899.41
2023-08-12T05:12:40.620Z,99891.38
2023-08-12T05:14:45.368Z,99890.53
2023-08-12T05:16:48.521Z,99890.75
2023-08-12T05:18:52.360Z,99895.78
2023-08-12T05:20:55.400Z,99901.06
2023-08-12T05:22:59.040Z,99894.84
2023-08-12T05:25:01.999Z,99892.13
2023-08-12T05:27:05.840Z,99893.91
2023-08-12T05:29:08.717Z,99895.94
2023-08-12T05:31:13.284Z,99907.94
2023-08-12T05:33:16.291Z,99901.56
2023-08-12T05:35:19.370Z,99901.38
2023-08-12T05:37:22.300Z,99896.41
2023-08-12T05:39:25.474Z,99890.31
2023-08-12T05:41:28.773Z,99889.72
2023-08-12T05:43:31.923Z,99894.88
2023-08-12T05:45:34.993Z,99891.56
2023-08-12T05:47:39.645Z,99893.44
2023-08-12T05:49:43.800Z,99891.31
2023-08-12T05:51:47.039Z,99900.03
2023-08-12T05:53:50.399Z,99898.50
2023-08-12T05:55:53.554Z,99905.03
2023-08-12T05:57:56.578Z,99905.72
2023-08-12T05:59:59.551Z,99905.34
2023-08-12T06:02:02.753Z,99900.53
2023-08-12T06:04:07.626Z,99903.25
2023-08-12T06:06:13.888Z,99897.03
2023-08-12T06:08:17.741Z,99892.53
2023-08-12T06:10:20.663Z,99891.41
2023-08-12T06:12:23.747Z,99897.47
2023-08-12T06:14:26.686Z,99896.75
2023-08-12T06:16:29.861Z,99899.91
2023-08-12T06:18:33.364Z,99898.03
2023-08-12T06:20:37.898Z,99897.47
2023-08-12T06:22:40.879Z,99895.47
2023-08-12T06:24:43.971Z,99899.44
2023-08-12T06:26:46.959Z,99901.63
2023-08-12T06:28:49.998Z,99903.41
2023-08-12T06:30:53.053Z,99903.38
2023-08-12T06:32:56.085Z,99906.91
2023-08-12T06:34:59.129Z,99903.16
2023-08-12T06:37:03.900Z,99906.66
2023-08-12T06:39:07.072Z,99904.13
2023-08-12T06:41:10.014Z,99906.41
2023-08-12T06:43:13.247Z,99896.44
2023-08-12T06:45:16.404Z,99897.81
2023-08-12T06:47:19.260Z,99895.91
2023-08-12T06:49:22.426Z,99903.69
2023-08-12T06:51:25.369Z,99900.97
2023-08-12T06:53:29.905Z,99897.78
2023-08-12T06:55:33.262Z,99894.38
2023-08-12T06:57:36.241Z,99898.53
2023-08-12T06:59:39.280Z,99894.16
2023-08-12T07:01:42.508Z,99884.56
2023-08-12T07:03:45.606Z,99898.75
2023-08-12T07:05:48.774Z,99898.88
2023-08-12T07:07:51.766Z,99894.75
2023-08-12T07:09:56.393Z,99893.88
2023-08-12T07:11:59.363Z,99899.44
2023-08-12T07:14:02.391Z,99895.75
2023-08-12T07:16:05.803Z,99898.94
2023-08-12T07:18:08.969Z,99896.13
2023-08-12T07:20:12.293Z,99890.78
2023-08-12T07:22:15.365Z,99891.41
2023-08-12T07:24:18.407Z,99900.16
2023-08-12T07:26:22.943Z,99898.94
2023-08-12T07:28:25.923Z,99881.41
2023-08-12T07:30:28.918Z,99889.50
2023-08-12T07:32:31.966Z,99890.31
2023-08-12T07:34:35.309Z,99883.47
2023-08-12T07:36:38.182Z,99883.50
2023-08-12T07:38:41.244Z,99880.66
2023-08-12T07:40:44.107Z,99883.56
2023-08-12T07:42:48.969Z,99882.72
2023-08-12T07:44:52.023Z,99888.44
2023-08-12T07:46:55.145Z,99888.75
2023-08-12T07:48:58.229Z,99889.66
2023-08-12T07:51:01.607Z,99889.69
2023-08-12T07:53:04.975Z,99887.44
2023-08-12T07:55:08.466Z,99886.69
2023-08-12T07:57:11.451Z,99885.84
2023-08-12T07:59:17.528Z,99888.41
2023-08-12T08:01:20.554Z,99891.81
2023-08-12T08:03:23.649Z,99884.94
2023-08-12T08:05:26.653Z,99881.81
2023-08-12T08:07:30.034Z,99876.72
2023-08-12T08:09:33.103Z,99873.16
2023-08-12T08:11:36.262Z,99881.63
2023-08-12T08:13:39.244Z,99867.72
2023-08-12T08:15:43.800Z,99874.94
2023-08-12T08:17:46.894Z,99871.69
2023-08-12T08:19:50.239Z,99881.97
2023-08-12T08:21:53.291Z,99872.66
2023-08-12T08:23:56.290Z,99868.56
2023-08-12T08:25:59.186Z,99867.22
2023-08-12T08:28:02.258Z,99857.06
2023-08-12T08:30:05.755Z,99862.59
2023-08-12T08:32:10.486Z,99855.78
2023-08-12T08:34:13.754Z,99865.72
2023-08-12T08:36:18.250Z,99863.69
2023-08-12T08:38:21.562Z,99856.94
2023-08-12T08:40:25.177Z,99857.06
2023-08-12T08:42:28.595Z,99862.38
2023-08-12T08:44:32.769Z,99850.25
2023-08-12T08:46:36.477Z,99861.13
2023-08-12T08:48:41.286Z,99858.03
2023-08-12T08:50:47.373Z,99852.50
2023-08-12T08:52:53.238Z,99845.69
2023-08-12T08:54:56.688Z,99844.63
2023-08-12T08:57:05.623Z,99843.91
2023-08-12T08:59:14.775Z,99840.13
2023-08-12T09:01:21.350Z,99840.34
2023-08-12T09:03:25.321Z,99830.63
2023-08-12T09:05:31.610Z,99836.22
2023-08-12T09:07:35.890Z,99840.91
2023-08-12T09:09:41.540Z,99842.19
2023-08-12T09:11:46.526Z,99840.78
2023-08-12T09:13:49.951Z,99831.66
2023-08-12T09:15:52.876Z,99843.22
2023-08-12T09:17:56.041Z,99841.25
2023-08-12T09:19:59.292Z,99840.53
2023-08-12T09:22:04.874Z,99832.59
2023-08-12T09:24:10.002Z,99831.72
2023-08-12T09:26:16.432Z,99830.13
2023-08-12T09:28:19.391Z,99833.50
2023-08-12T09:30:22.534Z,99837.03
2023-08-12T09:32:25.741Z,99843.19
2023-08-12T09:34:28.753Z,99833.53
2023-08-12T09:36:32.594Z,99832.69
2023-08-12T09:38:37.158Z,99838.56
2023-08-12T09:40:40.313Z,99827.50
2023-08-12T09:42:47.280Z,99830.19
2023-08-12T09:44:50.209Z,99833.72
2023-08-12T09:47:00.119Z,99838.97
2023-08-12T09:49:03.329Z,99822.31
2023-08-12T09:51:07.089Z,99816.47
2023-08-12T09:53:11.151Z,99818.84
2023-08-12T09:55:19.062Z,99819.41
2023-08-12T09:57:27.442Z,99810.97
2023-08-12T09:59:37.121Z,99814.72
2023-08-12T10:01:43.397Z,99806.97
2023-08-12T10:03:50.646Z,99807.88
2023-08-12T10:05:54.758Z,99800.31
2023-08-12T10:07:58.288Z,99801.00
2023-08-12T10:10:01.181Z,99795.63
2023-08-12T10:12:07.646Z,99793.81
2023-08-12T10:14:11.528Z,99796.47
2023-08-12T10:16:14.816Z,99786.50
2023-08-12T10:18:19.687Z,99783.81
2023-08-12T10:20:25.493Z,99779.19
2023-08-12T10:22:30.862Z,99785.22
2023-08-12T10:24:35.547Z,99779.59
2023-08-12T10:26:39.377Z,99784.78
2023-08-12T10:28:44.329Z,99774.81
2023-08-12T10:30:47.646Z,99783.72
2023-08-12T10:32:51.698Z,99777.91
2023-08-12T10:34:58.262Z,99785.53
2023-08-12T10:37:04.200Z,99783.44
2023-08-12T10:39:11.672Z,99778.72
2023-08-12T10:41:19.634Z,99777.63
2023-08-12T10:43:22.823Z,99773.66
2023-08-12T10:45:44.175Z,99778.78
2023-08-12T10:47:53.284Z,99774.91
2023-08-12T10:49:56.728Z,99772.34
2023-08-12T10:51:59.919Z,99771.66
2023-08-12T10:54:15.981Z,99762.75
2023-08-12T10:56:19.020Z,99766.16
2023-08-12T10:58:35.326Z,99766.47
2023-08-12T11:00:39.772Z,99765.81
2023-08-12T11:02:46.580Z,99761.69
2023-08-12T11:04:57.166Z,99762.25
2023-08-12T11:07:01.600Z,99753.25
2023-08-12T11:09:10.057Z,99756.50
2023-08-12T11:11:22.326Z,99755.47
2023-08-12T11:13:28.841Z,99749.00
2023-08-12T11:15:34.247Z,99744.09
2023-08-12T11:17:38.958Z,99748.25
2023-08-12T11:19:42.640Z,99740.16
2023-08-12T11:21:46.183Z,99738.84
2023-08-12T11:23:49.511Z,99736.53
2023-08-12T11:25:52.932Z,99728.38
2023-08-12T11:27:56.062Z,99723.91
2023-08-12T11:29:58.990Z,99736.38
2023-08-12T11:32:02.425Z,99729.91
2023-08-12T11:34:07.830Z,99718.47
2023-08-12T11:36:11.141Z,99729.66
2023-08-12T11:38:14.200Z,99721.78
2023-08-12T11:40:19.007Z,99721.41
2023-08-12T11:42:22.038Z,99720.31
2023-08-12T11:44:25.099Z,99719.66
2023-08-12T11:46:28.145Z,99724.00
2023-08-12T11:48:31.268Z,99712.72
2023-08-12T11:50:36.211Z,99704.41
2023-08-12T11:52:39.873Z,99706.38
2023-08-12T11:54:43.177Z,99701.84
2023-08-12T11:56:46.283Z,99698.41
2023-08-12T11:58:53.773Z,99688.75
2023-08-12T12:00:56.959Z,99691.66
2023-08-12T12:03:00.022Z,99689.63
2023-08-12T12:05:09.069Z,99684.50
2023-08-12T12:07:24.951Z,99678.72
2023-08-12T12:09:27.838Z,99676.56
2023-08-12T12:11:30.769Z,99684.03
2023-08-12T12:13:33.810Z,99683.00
2023-08-12T12:15:41.022Z,99678.72
2023-08-12T12:17:44.348Z,99676.22
2023-08-12T12:19:47.774Z,99673.66
2023-08-12T12:21:52.497Z,99681.97
2023-08-12T12:23:56.980Z,99682.44
2023-08-12T12:26:01.288Z,99671.72
2023-08-12T12:28:05.199Z,99670.69
2023-08-12T12:30:10.439Z,99667.91
2023-08-12T12:32:13.791Z,99670.47
2023-08-12T12:34:17.541Z,99659.00
2023-08-12T12:36:20.549Z,99674.28
2023-08-12T12:38:23.598Z,99658.44
2023-08-12T12:40:28.098Z,99651.94
2023-08-12T12:42:31.190Z,99654.50
2023-08-12T12:44:34.629Z,99658.22
2023-08-12T12:46:37.695Z,99650.78
2023-08-12T12:48:40.956Z,99652.06
2023-08-12T12:50:44.129Z,99648.03
2023-08-12T12:52:47.312Z,99642.94
2023-08-12T12:54:50.358Z,99642.69
2023-08-12T12:56:54.800Z,99637.84
2023-08-12T12:58:58.029Z,99636.59
2023-08-12T13:01:01.394Z,99630.00
2023-08-12T13:03:04.795Z,99633.13
2023-08-12T13:05:08.259Z,99633.81
2023-08-12T13:07:11.237Z,99633.47
2023-08-12T13:09:14.181Z,99627.56
2023-08-12T13:11:17.539Z,99623.97
2023-08-12T13:13:21.978Z,99617.84
2023-08-12T13:15:27.002Z,99622.38
2023-08-12T13:17:30.084Z,99612.66
2023-08-12T13:19:33.061Z,99607.00
2023-08-12T13:21:36.003Z,99603.75
2023-08-12T13:23:39.130Z,99605.63
2023-08-12T13:25:42.150Z,99601.34
2023-08-12T13:27:45.240Z,99596.47
2023-08-12T13:29:49.710Z,99602.63
2023-08-12T13:31:52.767Z,99600.88
2023-08-12T13:33:55.746Z,99601.00
2023-08-12T13:35:58.850Z,99599.53
2023-08-12T13:38:01.808Z,99609.91
2023-08-12T13:40:06.631Z,99605.06
2023-08-12T13:42:09.634Z,99602.72
2023-08-12T13:44:12.631Z,99593.50
2023-08-12T13:46:17.068Z,99595.09
2023-08-12T13:48:20.399Z,99591.53
2023-08-12T13:50:23.540Z,99589.44
2023-08-12T13:52:26.632Z,99587.22
2023-08-12T13:54:29.600Z,99581.38
2023-08-12T13:56:32.686Z,99590.81
2023-08-12T13:58:35.552Z,99586.22
2023-08-12T14:00:38.810Z,99575.16
2023-08-12T14:02:43.510Z,99569.28
2023-08-12T14:04:46.542Z,99571.72
2023-08-12T14:06:51.839Z,99572.81
2023-08-12T14:08:55.881Z,99565.31
2023-08-12T14:10:58.841Z,99559.41
2023-08-12T14:13:01.948Z,99556.72
2023-08-12T14:15:05.958Z,99558.47
2023-08-12T14:17:09.433Z,99557.91
2023-08-12T14:19:18.911Z,99554.78
2023-08-12T14:21:22.099Z,99557.94
2023-08-12T14:23:25.039Z,99551.06
2023-08-12T14:25:28.085Z,99549.59
2023-08-12T14:27:31.050Z,99551.44
2023-08-12T14:29:34.018Z,99557.25
2023-08-12T14:31:37.178Z,99547.38
2023-08-12T14:33:40.286Z,99550.19
2023-08-12T14:35:44.694Z,99543.38
2023-08-12T14:37:48.077Z,99538.88
2023-08-12T14:39:51.018Z,99541.84
2023-08-12T14:41:54.033Z,99539.69
2023-08-12T14:43:57.310Z,99534.56
2023-08-12T14:46:00.393Z,99536.34
2023-08-12T14:48:03.629Z,99523.84
2023-08-12T14:50:07.541Z,99534.13
2023-08-12T14:52:18.820Z,99527.38
2023-08-12T14:54:21.827Z,99526.13
2023-08-12T14:56:24.998Z,99524.28
2023-08-12T14:58:28.104Z,99525.56
2023-08-12T15:00:32.007Z,99527.63
2023-08-12T15:02:35.129Z,99526.00
2023-08-12T15:04:38.241Z,99522.44
2023-08-12T15:06:41.344Z,99523.34
2023-08-12T15:08:45.957Z,99517.22
2023-08-12T15:10:48.927Z,99519.63
2023-08-12T15:12:51.861Z,99510.41
2023-08-12T15:14:55.200Z,99515.50
2023-08-12T15:16:58.115Z,99502.31
2023-08-12T15:19:01.144Z,99510.66
2023-08-12T15:21:04.776Z,99511.38
2023-08-12T15:23:07.789Z,99504.31
2023-08-12T15:25:12.534Z,99504.50
2023-08-12T15:27:15.969Z,99504.91
2023-08-12T15:29:19.208Z,99494.41
2023-08-12T15:31:22.909Z,99499.03
2023-08-12T15:33:26.000Z,99499.03
2023-08-12T15:35:29.610Z,99484.63
2023-08-12T15:37:32.588Z,99494.06
2023-08-12T15:39:35.802Z,99488.06
2023-08-12T15:41:44.326Z,99492.81
2023-08-12T15:43:47.472Z,99493.56
2023-08-12T15:45:50.564Z,99487.13
2023-08-12T15:47:55.620Z,99496.59
2023-08-12T15:49:58.880Z,99493.94
2023-08-12T15:52:02.578Z,99494.75
2023-08-12T15:54:06.332Z,99492.72
2023-08-12T15:56:09.569Z,99490.72
2023-08-12T15:58:14.069Z,99488.78
2023-08-12T16:00:17.134Z,99488.31
2023-08-12T16:02:20.439Z,99488.22
2023-08-12T16:04:23.449Z,99485.00
2023-08-12T16:06:26.501Z,99488.81
2023-08-12T16:08:30.176Z,99484.44
2023-08-12T16:10:33.210Z,99486.50
2023-08-12T16:12:37.025Z,99481.13
2023-08-12T16:14:41.508Z,99485.63
2023-08-12T16:16:44.471Z,99481.75
2023-08-12T16:18:47.462Z,99491.53
2023-08-12T16:20:50.505Z,99480.34
2023-08-12T16:22:53.381Z,99481.34
2023-08-12T16:24:57.080Z,99480.56
2023-08-12T16:27:01.391Z,99478.97
2023-08-12T16:29:04.690Z,99476.69
2023-08-12T16:31:09.264Z,99473.16
2023-08-12T16:33:13.366Z,99474.47
2023-08-12T16:35:16.412Z,99468.47
2023-08-12T16:37:21.126Z,99469.28
2023-08-12T16:39:24.684Z,99468.13
2023-08-12T16:41:27.781Z,99468.94
2023-08-12T16:43:30.675Z,99465.88
2023-08-12T16:45:34.959Z,99467.84
2023-08-12T16:47:39.465Z,99459.09
2023-08-12T16:49:42.529Z,99452.63
2023-08-12T16:51:45.501Z,99461.81
2023-08-12T16:53:48.449Z,99453.06
2023-08-12T16:55:51.489Z,99458.06
2023-08-12T16:57:54.692Z,99461.91
2023-08-12T16:59:57.810Z,99461.41
2023-08-12T17:02:00.932Z,99454.09
2023-08-12T17:04:08.376Z,99448.06
2023-08-12T17:06:11.381Z,99452.84
2023-08-12T17:08:14.468Z,99445.84
2023-08-12T17:10:17.590Z,99444.50
2023-08-12T17:12:20.587Z,99439.97
2023-08-12T17:14:23.647Z,99438.91
2023-08-12T17:16:26.841Z,99437.91
2023-08-12T17:18:29.829Z,99438.44
2023-08-12T17:20:34.278Z,99440.81
2023-08-12T17:22:37.321Z,99441.94
2023-08-12T17:24:40.218Z,99443.75
2023-08-12T17:26:43.244Z,99441.13
2023-08-12T17:28:46.246Z,99443.00
2023-08-12T17:30:49.573Z,99437.31
2023-08-12T17:32:52.839Z,99437.56
2023-08-12T17:34:55.829Z,99449.03
2023-08-12T17:37:00.344Z,99443.91
2023-08-12T17:39:03.631Z,99449.41
2023-08-12T17:41:06.573Z,99445.97
2023-08-12T17:43:09.801Z,99450.66
2023-08-12T17:45:12.722Z,99444.34
2023-08-12T17:47:16.631Z,99451.00
2023-08-12T17:49:20.354Z,99452.00
2023-08-12T17:51:23.515Z,99448.47
2023-08-12T17:53:28.257Z,99446.03
2023-08-12T17:55:31.398Z,99452.50
2023-08-12T17:57:34.279Z,99454.19
2023-08-12T17:59:37.237Z,99451.66
2023-08-12T18:01:40.267Z,99448.59
2023-08-12T18:03:43.363Z,99446.41
2023-08-12T18:05:46.344Z,99452.38
2023-08-12T18:07:49.797Z,99462.31
2023-08-12T18:09:54.285Z,99457.06
2023-08-12T18:11:57.227Z,99462.78
2023-08-12T18:14:00.320Z,99459.94
2023-08-12T18:16:03.850Z,99463.44
2023-08-12T18:18:07.489Z,99461.22
2023-08-12T18:20:11.587Z,99460.06
2023-08-12T18:22:14.850Z,99468.84
2023-08-12T18:24:18.355Z,99465.00
2023-08-12T18:26:22.804Z,99468.03
2023-08-12T18:28:26.178Z,99469.88
2023-08-12T18:30:29.187Z,99474.16
2023-08-12T18:32:32.407Z,99474.66
2023-08-12T18:34:35.635Z,99475.59
2023-08-12T18:36:38.629Z,99479.59
2023-08-12T18:38:41.860Z,99481.72
2023-08-12T18:40:45.020Z,99478.97
2023-08-12T18:42:49.491Z,99489.63
2023-08-12T18:44:52.648Z,99484.94
2023-08-12T18:46:55.686Z,99490.41
2023-08-12T18:48:58.813Z,99491.63
2023-08-12T18:51:01.812Z,99495.94
2023-08-12T18:53:05.345Z,99498.00
2023-08-12T18:55:11.531Z,99496.06
2023-08-12T18:57:14.490Z,99489.72
2023-08-12T18:59:19.337Z,99495.19
2023-08-12T19:01:23.753Z,99491.59
2023-08-12T19:03:26.853Z,99495.41
2023-08-12T19:05:30.430Z,99490.31
2023-08-12T19:07:34.096Z,99492.78
2023-08-12T19:09:37.190Z,99496.06
2023-08-12T19:11:40.190Z,99495.25
2023-08-12T19:13:43.258Z,99498.25
2023-08-12T19:15:47.806Z,99491.88
2023-08-12T19:17:50.830Z,99491.91
2023-08-12T19:19:53.832Z,99490.00
2023-08-12T19:21:56.811Z,99496.31
2023-08-12T19:23:59.652Z,99491.44
2023-08-12T19:26:02.798Z,99499.44
2023-08-12T19:28:06.504Z,99494.81
2023-08-12T19:30:13.740Z,99493.72
2023-08-12T19:32:18.335Z,99495.63
2023-08-12T19:34:21.330Z,99493.97
2023-08-12T19:36:24.588Z,99492.66
2023-08-12T19:38:27.599Z,99496.78
2023-08-12T19:40:30.940Z,99489.44
2023-08-12T19:42:33.969Z,99494.69
2023-08-12T19:44:36.846Z,99485.47
2023-08-12T19:46:40.964Z,99497.75
2023-08-12T19:48:45.400Z,99494.47
2023-08-12T19:50:51.006Z,99495.53
2023-08-12T19:52:53.987Z,99497.16
2023-08-12T19:54:57.814Z,99493.66
2023-08-12T19:57:00.762Z,99490.41
2023-08-12T19:59:03.971Z,99494.53
2023-08-12T20:01:06.873Z,99500.00
2023-08-12T20:03:10.046Z,99508.44
2023-08-12T20:05:15.937Z,99507.66
2023-08-12T20:07:19.098Z,99517.22
2023-08-12T20:09:21.946Z,99509.34
2023-08-12T20:11:24.985Z,99508.78
2023-08-12T20:13:28.531Z,99506.34
2023-08-12T20:15:31.717Z,99509.34
2023-08-12T20:17:35.032Z,99501.75
2023-08-12T20:19:38.212Z,99505.56
2023-08-12T20:21:42.919Z,99513.78
2023-08-12T20:23:45.939Z,99507.69
2023-08-12T20:25:48.789Z,99499.75
2023-08-12T20:27:51.861Z,99507.16
2023-08-12T20:29:54.764Z,99506.84
2023-08-12T20:31:57.698Z,99502.53
2023-08-12T20:34:00.777Z,99503.88
2023-08-12T20:36:04.283Z,99506.06
2023-08-12T20:38:08.970Z,99506.88
2023-08-12T20:40:12.866Z,99509.34
2023-08-12T20:42:15.778Z,99515.91
2023-08-12T20:44:18.789Z,99508.53
2023-08-12T20:46:21.809Z,99514.28
2023-08-12T20:48:24.888Z,99516.47
2023-08-12T20:50:27.820Z,99513.22
2023-08-12T20:52:32.026Z,99509.16
2023-08-12T20:54:36.508Z,99501.81
2023-08-12T20:56:39.547Z,99507.78
2023-08-12T20:58:42.558Z,99504.00
2023-08-12T21:00:45.829Z,99504.25
2023-08-12T21:02:48.802Z,99504.84
2023-08-12T21:04:52.233Z,99500.47
2023-08-12T21:07:00.008Z,99507.56
2023-08-12T21:09:03.573Z,99502.41
2023-08-12T21:11:08.550Z,99505.66
2023-08-12T21:13:11.510Z,99504.59
2023-08-12T21:15:14.402Z,99491.53
2023-08-12T21:17:17.550Z,99481.03
2023-08-12T21:19:20.669Z,99481.00
2023-08-12T21:21:23.885Z,99479.38
2023-08-12T21:23:26.800Z,99476.94
2023-08-12T21:25:29.879Z,99478.09
2023-08-12T21:27:34.252Z,99476.22
2023-08-12T21:29:37.559Z,99469.66
2023-08-12T21:31:40.610Z,99471.03
2023-08-12T21:33:43.593Z,99466.66
2023-08-12T21:35:46.421Z,99470.19
2023-08-12T21:37:49.598Z,99471.03
2023-08-12T21:39:52.553Z,99468.56
2023-08-12T21:41:55.528Z,99472.13
2023-08-12T21:43:59.961Z,99473.75
2023-08-12T21:46:03.075Z,99468.34
2023-08-12T21:48:07.085Z,99466.16
2023-08-12T21:50:10.936Z,99474.59
2023-08-12T21:52:14.287Z,99484.97
2023-08-12T21:54:18.220Z,99481.16
2023-08-12T21:56:21.433Z,99470.56
2023-08-12T21:58:24.470Z,99481.72
2023-08-12T22:00:28.930Z,99477.66
2023-08-12T22:02:31.985Z,99478.19
2023-08-12T22:04:35.636Z,99474.13
2023-08-12T22:06:38.606Z,99476.00
2023-08-12T22:08:41.581Z,99489.63
2023-08-12T22:10:45.944Z,99478.47
2023-08-12T22:12:48.870Z,99483.13
2023-08-12T22:14:51.890Z,99480.38
2023-08-12T22:16:57.240Z,99484.72
2023-08-12T22:18:59.779Z,99480.38
2023-08-12T22:21:03.719Z,99473.31
2023-08-12T22:23:06.742Z,99473.56
2023-08-12T22:25:10.420Z,99470.84
2023-08-12T22:27:13.533Z,99466.50
2023-08-12T22:29:16.480Z,99472.78
2023-08-12T22:31:19.543Z,99468.41
2023-08-12T22:33:24.199Z,99472.50
2023-08-12T22:35:27.171Z,99471.13
2023-08-12T22:37:30.360Z,99471.66
2023-08-12T22:39:33.438Z,99480.63
2023-08-12T22:41:36.564Z,99471.94
2023-08-12T22:43:39.672Z,99472.97
2023-08-12T22:45:44.952Z,99480.59
2023-08-12T22:47:47.731Z,99483.28
2023-08-12T22:49:52.180Z,99483.28
2023-08-12T22:51:55.202Z,99482.75
2023-08-12T22:54:01.946Z,99476.75
2023-08-12T22:56:05.440Z,99478.13
2023-08-12T22:58:08.749Z,99481.66
2023-08-12T23:00:12.621Z,99473.50
2023-08-12T23:02:15.853Z,99478.38
2023-08-12T23:04:19.100Z,99470.50
2023-08-12T23:06:23.450Z,99472.94
2023-08-12T23:08:26.470Z,99470.50
2023-08-12T23:10:29.539Z,99480.84
2023-08-12T23:12:32.609Z,99477.31
2023-08-12T23:14:35.524Z,99476.78
2023-08-12T23:16:38.659Z,99471.91
2023-08-12T23:18:41.649Z,99473.25
2023-08-12T23:20:44.719Z,99472.19
2023-08-12T23:22:49.281Z,99477.84
2023-08-12T23:24:52.318Z,99478.97
2023-08-12T23:26:55.241Z,99478.13
2023-08-12T23:28:58.228Z,99483.56
2023-08-12T23:31:01.528Z,99480.38
2023-08-12T23:33:05.418Z,99476.81
2023-08-12T23:35:09.064Z,99477.34
2023-08-12T23:37:12.234Z,99471.91
2023-08-12T23:39:17.716Z,99478.72
2023-08-12T23:41:20.709Z,99479.00
2023-08-12T23:43:23.829Z,99487.19
2023-08-12T23:45:26.797Z,99482.28
2023-08-12T23:47:29.752Z,99486.38
2023-08-12T23:49:32.978Z,99486.63
2023-08-12T23:51:35.930Z,99481.72
2023-08-12T23:53:38.864Z,99470.03
2023-08-12T23:55:43.411Z,99470.84
2023-08-12T23:57:47.247Z,99468.13
2023-08-12T23:59:50.149Z,99469.75
